Buoy 13526

sailwx.info

Track history (hours):
 
Tides and Currents Weather Stations Pressure Air Temp Water Temp Dewpoint Dewpoint Depression Visibility Wind Speed Wind Dir Waves Ship Positions

Drifting buoy 13526

Last reported at 2015-May-22 11:55 UTC. Time now 2015-May-22 13:01 UTC.
Position N 27°23' W 046°42'.

Date/timePositionNaut miles runAvg speedWind from/ knotsBaromVisibWave heightAir tempDewpointWater temp
2015-May-22 11:55N 27°23' W 046°42'0 0.1
2015-May-22 09:26N 27°23' W 046°42'0 0.6 23.3
2015-May-22 09:01N 27°23' W 046°42'1 7.1 23.3
2015-May-22 08:55N 27°23' W 046°41'138.0 23.3
2015-May-22 08:54N 27°23' W 046°42'0 0.1 23.3
2015-May-22 07:17N 27°24' W 046°42'0 9.6 23.3
2015-May-22 07:14N 27°24' W 046°41'0 0.0 23.3
2015-May-22 06:59N 27°24' W 046°41'0 3.6 23.3
2015-May-22 06:56N 27°24' W 046°41'0 0.0 23.3
2015-May-22 06:17N 27°24' W 046°41'1 7.3 23.3
2015-May-22 06:10N 27°23' W 046°41'2 0.3 23.3
2015-May-21 21:54N 27°26' W 046°41'0 0.1 23.5
2015-May-21 17:50N 27°26' W 046°41'0 0.2 23.5
2015-May-21 16:09N 27°26' W 046°41'0 0.2 23.4
2015-May-21 14:02N 27°26' W 046°41'0 0.5 23.3
2015-May-21 13:14N 27°26' W 046°41'0 0.3 23.3
2015-May-21 12:12N 27°26' W 046°41'0 0.1 23.3
2015-May-21 09:09N 27°26' W 046°41'0 2.4 23.3
2015-May-21 09:06N 27°26' W 046°41'2 0.2 23.3
2015-May-21 01:37N 27°27' W 046°39'1 0.7 23.4
2015-May-21 00:51N 27°27' W 046°39'0 0.5 23.4
2015-May-20 23:56N 27°27' W 046°39'0 0.0 23.4
2015-May-20 23:54N 27°27' W 046°39'0 0.6 23.5
2015-May-20 23:10N 27°27' W 046°38'0 5.9 23.5
2015-May-20 23:05N 27°28' W 046°39'0 0.0 23.5
2015-May-20 23:02N 27°28' W 046°39'0 0.1 23.5
2015-May-20 18:01N 27°28' W 046°39'0 0.1 23.5
2015-May-20 13:36N 27°28' W 046°39'0 0.2 23.5
2015-May-20 11:55N 27°28' W 046°39'1 1.3 23.5
2015-May-20 10:54N 27°27' W 046°39'0 0.0 23.5
2015-May-20 10:26N 27°27' W 046°39'0 0.4 23.5
2015-May-20 09:17N 27°26' W 046°39'1 0.3 23.5
2015-May-20 07:08N 27°26' W 046°39'1 0.4 23.5
2015-May-20 04:55N 27°26' W 046°38'1 0.3 23.5
2015-May-20 01:55N 27°26' W 046°37'013.3 23.6
2015-May-20 01:54N 27°26' W 046°36'1 0.2 23.6
2015-May-19 21:09N 27°27' W 046°36'0 0.2 23.6
2015-May-19 20:53N 27°27' W 046°36'0 0.5 23.6
2015-May-19 19:55N 27°27' W 046°36'0 8.0 23.6
2015-May-19 19:52N 27°27' W 046°36'0 0.0 23.6
2015-May-19 19:15N 27°27' W 046°36'1 0.5 23.6
2015-May-19 18:09N 27°27' W 046°35'0 0.1 23.6
2015-May-19 13:55N 27°27' W 046°35'0 0.1 23.6
2015-May-19 12:07N 27°27' W 046°35'0 0.1 23.6
2015-May-19 11:18N 27°27' W 046°35'0 0.0 23.6
2015-May-19 09:56N 27°27' W 046°35'0 1.7 23.6
2015-May-19 09:46N 27°26' W 046°35'0 0.5 23.6
2015-May-19 09:36N 27°26' W 046°35'0 2.8 23.5
2015-May-19 09:28N 27°26' W 046°35'0 0.9 23.5
2015-May-19 09:19N 27°26' W 046°35'0 0.1 23.6
2015-May-19 07:41N 27°26' W 046°35'0 0.3 23.6
2015-May-19 06:53N 27°26' W 046°35'0 2.7 23.6
2015-May-19 06:44N 27°26' W 046°35'0 0.0 23.6
2015-May-19 05:09N 27°26' W 046°35'2 0.6 23.6
2015-May-19 02:14N 27°25' W 046°33'0 0.0 23.6
2015-May-19 01:31N 27°25' W 046°33'0 0.0 23.6
2015-May-19 00:40N 27°25' W 046°33'0 0.2 23.6
2015-May-18 23:51N 27°25' W 046°33'0 0.0
2015-May-18 23:50N 27°25' W 046°33'0 3.5 23.6
2015-May-18 23:45N 27°25' W 046°32'0 6.9 23.6
2015-May-18 23:41N 27°26' W 046°32'1 0.7
2015-May-18 22:52N 27°25' W 046°31'0 0.2 23.7
2015-May-18 21:33N 27°25' W 046°31'0 0.5 23.7
2015-May-18 21:07N 27°25' W 046°31'0 0.1 23.7
2015-May-18 20:31N 27°25' W 046°31'0 2.6 23.7
2015-May-18 20:21N 27°26' W 046°31'0 0.0 23.7
2015-May-18 19:55N 27°26' W 046°31'0 0.0 23.7
2015-May-18 19:25N 27°26' W 046°31'0 0.4 23.8
2015-May-18 18:23N 27°26' W 046°31'1 1.2 23.9
2015-May-18 17:45N 27°26' W 046°30'0 0.3 23.7
2015-May-18 16:41N 27°26' W 046°31'1 0.4 23.6
2015-May-18 14:59N 27°26' W 046°30'0 0.2 23.6
2015-May-18 14:15N 27°26' W 046°30'0 0.0 23.6
2015-May-18 12:34N 27°26' W 046°30'0 5.3 23.6
2015-May-18 12:31N 27°26' W 046°30'110.9 23.6
2015-May-18 12:28N 27°27' W 046°30'0 0.3 23.6
2015-May-18 11:40N 27°27' W 046°30'1 6.5 23.6
2015-May-18 11:35N 27°26' W 046°30'0 0.0 23.6
2015-May-18 10:20N 27°26' W 046°30'0 1.0 23.5
2015-May-18 09:51N 27°26' W 046°30'0 3.4 23.5
2015-May-18 09:43N 27°26' W 046°29'0 0.0 23.5
2015-May-18 08:08N 27°26' W 046°29'0 2.4 23.6
2015-May-18 08:05N 27°26' W 046°30'0 2.6 23.6
2015-May-18 08:01N 27°26' W 046°30'0 9.4 23.6
2015-May-18 07:58N 27°25' W 046°29'0 0.0 23.6
2015-May-18 07:04N 27°25' W 046°29'1 0.4 23.6
2015-May-18 05:20N 27°25' W 046°29'2 1.0 23.6
2015-May-18 03:39N 27°24' W 046°27'0 0.0 23.6
2015-May-18 01:44N 27°24' W 046°27'0 0.1
2015-May-18 00:54N 27°24' W 046°27'0 0.1 23.6
2015-May-18 00:08N 27°24' W 046°27'0 0.0 23.6
2015-May-17 23:19N 27°24' W 046°27'0 0.5 23.6
2015-May-17 23:10N 27°24' W 046°27'0 0.0
2015-May-17 21:55N 27°24' W 046°27'0 0.8 23.7
2015-May-17 21:18N 27°24' W 046°27'0 4.2 23.7
2015-May-17 21:15N 27°24' W 046°27'0 0.8 23.7
2015-May-17 21:01N 27°24' W 046°27'0 0.7 23.7
2015-May-17 20:20N 27°24' W 046°28'0 0.3 23.7
2015-May-17 19:40N 27°23' W 046°28'0 0.2 23.7
2015-May-17 18:34N 27°23' W 046°28'0 4.9 23.7
2015-May-17 18:30N 27°23' W 046°28'1 1.0 23.7
2015-May-17 17:53N 27°23' W 046°28'0 0.1 23.7
2015-May-17 16:55N 27°23' W 046°28'1 0.3 23.7
2015-May-17 15:10N 27°23' W 046°28'0 0.0
2015-May-17 12:52N 27°23' W 046°28'0 0.1 23.5
2015-May-17 12:00N 27°23' W 046°28'0 1.8 23.4
2015-May-17 11:56N 27°23' W 046°28'1 0.5 23.4
2015-May-17 10:20N 27°22' W 046°28'0 0.8 23.4
2015-May-17 09:54N 27°23' W 046°28'122.0 23.4
2015-May-17 09:51N 27°22' W 046°28'0 0.0 23.4
2015-May-17 08:44N 27°22' W 046°28'0 0.0 23.4
2015-May-17 08:38N 27°22' W 046°28'0 1.3 23.4
2015-May-17 08:16N 27°22' W 046°28'0 3.4 23.4
2015-May-17 08:09N 27°21' W 046°28'0 0.1 23.5
2015-May-17 07:13N 27°21' W 046°28'1 2.9 23.5
2015-May-17 07:01N 27°21' W 046°27'1 0.2 23.5
2015-May-16 22:47N 27°21' W 046°26'1 0.1 23.6
2015-May-16 19:04N 27°20' W 046°26'1 1.1 23.6
2015-May-16 18:08N 27°20' W 046°25'0 0.0 23.6
2015-May-16 17:07N 27°20' W 046°25'1 0.4 23.6
2015-May-16 14:05N 27°19' W 046°26'1 1.0 23.5
2015-May-16 13:20N 27°19' W 046°25'0 0.0 23.4
2015-May-16 13:14N 27°19' W 046°25'2 1.6 23.4
2015-May-16 12:16N 27°17' W 046°26'0 0.0 23.4
2015-May-16 10:08N 27°17' W 046°26'1 0.5 23.4
2015-May-16 08:20N 27°16' W 046°26'2 0.6 23.3
2015-May-16 04:02N 27°14' W 046°24'0 0.2 23.4
2015-May-16 01:39N 27°15' W 046°24'0 0.2 23.4
2015-May-15 23:55N 27°15' W 046°23'2 2.0 23.4
2015-May-15 23:09N 27°13' W 046°24'121.4 23.4
2015-May-15 23:06N 27°14' W 046°24'0 0.0 23.4
2015-May-15 21:09N 27°14' W 046°24'1 0.6 23.5
2015-May-15 20:04N 27°14' W 046°23'1 1.2 23.6
2015-May-15 18:55N 27°13' W 046°25'2 0.2 23.5
2015-May-15 11:53N 27°12' W 046°24'0 0.2 23.3
2015-May-15 11:01N 27°12' W 046°25'0 0.0 23.3
2015-May-15 09:53N 27°12' W 046°25'1 0.4 23.3
2015-May-15 08:11N 27°12' W 046°25'1 0.7 23.3
2015-May-15 06:55N 27°11' W 046°25'0 5.6 23.3
2015-May-15 06:52N 27°11' W 046°25'0 0.1 23.3
2015-May-15 05:53N 27°11' W 046°25'113.6 23.3
2015-May-15 05:49N 27°10' W 046°24'0 0.1 23.3
2015-May-15 04:13N 27°10' W 046°24'1 0.5 23.4
2015-May-15 01:55N 27°09' W 046°23'1 0.2 23.4
2015-May-14 22:40N 27°10' W 046°23'1 0.2 23.6
2015-May-14 20:14N 27°09' W 046°22'1 2.5 23.6
2015-May-14 19:55N 27°09' W 046°23'1 0.7 23.6
2015-May-14 18:09N 27°08' W 046°22'1 0.2 23.6
2015-May-14 13:54N 27°07' W 046°22'1 0.4 23.4
2015-May-14 12:21N 27°07' W 046°23'0 1.0 23.4
2015-May-14 12:16N 27°07' W 046°23'0 2.5 23.4
2015-May-14 12:13N 27°07' W 046°23'0 1.3 23.4
2015-May-14 12:08N 27°07' W 046°23'0 0.5 23.3
2015-May-14 11:21N 27°06' W 046°23'0 0.2 23.3
2015-May-14 10:29N 27°07' W 046°23'0 0.0 23.3
2015-May-14 10:20N 27°07' W 046°23'0 3.0 23.3
2015-May-14 10:16N 27°06' W 046°23'0 4.3
2015-May-14 10:09N 27°06' W 046°23'0 0.1 23.3
2015-May-14 08:49N 27°06' W 046°23'1 7.2 23.3
2015-May-14 08:44N 27°06' W 046°24'0 4.3 23.3
2015-May-14 08:38N 27°06' W 046°23'0 8.6 23.3
2015-May-14 08:35N 27°06' W 046°24'1 0.5 23.3
2015-May-14 07:06N 27°06' W 046°23'0 0.0
2015-May-14 06:56N 27°06' W 046°23'1 0.8 23.3
2015-May-14 06:03N 27°05' W 046°23'0 2.8 23.3
2015-May-14 05:59N 27°05' W 046°23'0 0.0 23.3
2015-May-14 04:27N 27°05' W 046°23'0 0.0 23.3
2015-May-14 04:24N 27°05' W 046°23'0 0.2 23.3
2015-May-14 02:18N 27°05' W 046°23'0 0.0 23.4
2015-May-14 01:34N 27°05' W 046°23'1 0.5 23.4
2015-May-13 23:55N 27°04' W 046°23'0 1.2 23.4
2015-May-13 23:52N 27°04' W 046°23'0 1.1 23.4
2015-May-13 23:49N 27°04' W 046°23'0 0.6 23.4
2015-May-13 23:02N 27°04' W 046°23'0 2.1 23.4
2015-May-13 22:56N 27°04' W 046°23'0 5.3 23.4
2015-May-13 22:51N 27°04' W 046°23'0 0.0
2015-May-13 21:54N 27°04' W 046°23'1 0.6 23.5
2015-May-13 20:25N 27°03' W 046°23'1 4.2 23.5
2015-May-13 20:15N 27°03' W 046°24'0 0.0 23.5
2015-May-13 19:41N 27°03' W 046°24'1 0.7 23.5
2015-May-13 18:44N 27°03' W 046°24'0 0.0 23.6
2015-May-13 17:40N 27°03' W 046°24'0 4.0 23.5
2015-May-13 17:34N 27°03' W 046°24'0 0.0 23.5
2015-May-13 15:59N 27°03' W 046°24'0 0.0 23.4
2015-May-13 15:56N 27°03' W 046°24'1 0.1 23.4
2015-May-13 10:41N 27°03' W 046°24'0 0.2 23.3
2015-May-13 09:06N 27°03' W 046°24'0 2.4 23.3
2015-May-13 08:58N 27°02' W 046°24'1 0.3 23.3
2015-May-13 06:13N 27°02' W 046°23'0 2.9 23.3
2015-May-13 06:08N 27°02' W 046°24'1 0.1 23.3
2015-May-13 01:02N 27°01' W 046°23'0 1.7 23.4
2015-May-13 00:55N 27°01' W 046°23'0 0.0 23.4
2015-May-13 00:17N 27°01' W 046°23'0 0.0 23.4
2015-May-13 00:13N 27°01' W 046°23'0 2.4 23.4
2015-May-13 00:09N 27°01' W 046°23'0 0.0 23.4
2015-May-12 23:23N 27°01' W 046°23'1 7.3 23.4
2015-May-12 23:17N 27°00' W 046°23'0 0.0 23.4
2015-May-12 23:14N 27°00' W 046°23'0 0.3 23.4
2015-May-12 21:55N 27°00' W 046°23'1 0.3 23.5
2015-May-12 18:55N 26°60' W 046°24'0 9.6 23.6
2015-May-12 18:54N 26°60' W 046°24'0 0.2 23.6
2015-May-12 17:51N 26°59' W 046°24'0 0.2 23.6
2015-May-12 16:10N 26°59' W 046°24'1 0.3 23.5
2015-May-12 13:47N 26°59' W 046°24'0 0.2 23.4
2015-May-12 12:53N 26°58' W 046°24'0 0.0 23.3
2015-May-12 12:03N 26°58' W 046°24'0 2.9 23.3
2015-May-12 11:58N 26°58' W 046°24'   23.3
Track history (hours):
 
Tides and Currents Weather Stations Pressure Air Temp Water Temp Dewpoint Dewpoint Depression Visibility Wind Speed Wind Dir Waves Ship Positions

Drifting buoy 13526

Last reported at 2015-May-22 11:55 UTC. Time now 2015-May-22 13:01 UTC.
Position N 27°23' W 046°42'.

Date/timePositionNaut miles runAvg speedWind from/ knotsBaromVisibWave heightAir tempDewpointWater temp
2015-May-22 11:55N 27°23' W 046°42'0 0.1
2015-May-22 09:26N 27°23' W 046°42'0 0.6 23.3
2015-May-22 09:01N 27°23' W 046°42'1 7.1 23.3
2015-May-22 08:55N 27°23' W 046°41'138.0 23.3
2015-May-22 08:54N 27°23' W 046°42'0 0.1 23.3
2015-May-22 07:17N 27°24' W 046°42'0 9.6 23.3
2015-May-22 07:14N 27°24' W 046°41'0 0.0 23.3
2015-May-22 06:59N 27°24' W 046°41'0 3.6 23.3
2015-May-22 06:56N 27°24' W 046°41'0 0.0 23.3
2015-May-22 06:17N 27°24' W 046°41'1 7.3 23.3
2015-May-22 06:10N 27°23' W 046°41'2 0.3 23.3
2015-May-21 21:54N 27°26' W 046°41'0 0.1 23.5
2015-May-21 17:50N 27°26' W 046°41'0 0.2 23.5
2015-May-21 16:09N 27°26' W 046°41'0 0.2 23.4
2015-May-21 14:02N 27°26' W 046°41'0 0.5 23.3
2015-May-21 13:14N 27°26' W 046°41'0 0.3 23.3
2015-May-21 12:12N 27°26' W 046°41'0 0.1 23.3
2015-May-21 09:09N 27°26' W 046°41'0 2.4 23.3
2015-May-21 09:06N 27°26' W 046°41'2 0.2 23.3
2015-May-21 01:37N 27°27' W 046°39'1 0.7 23.4
2015-May-21 00:51N 27°27' W 046°39'0 0.5 23.4
2015-May-20 23:56N 27°27' W 046°39'0 0.0 23.4
2015-May-20 23:54N 27°27' W 046°39'0 0.6 23.5
2015-May-20 23:10N 27°27' W 046°38'0 5.9 23.5
2015-May-20 23:05N 27°28' W 046°39'0 0.0 23.5
2015-May-20 23:02N 27°28' W 046°39'0 0.1 23.5
2015-May-20 18:01N 27°28' W 046°39'0 0.1 23.5
2015-May-20 13:36N 27°28' W 046°39'0 0.2 23.5
2015-May-20 11:55N 27°28' W 046°39'1 1.3 23.5
2015-May-20 10:54N 27°27' W 046°39'0 0.0 23.5
2015-May-20 10:26N 27°27' W 046°39'0 0.4 23.5
2015-May-20 09:17N 27°26' W 046°39'1 0.3 23.5
2015-May-20 07:08N 27°26' W 046°39'1 0.4 23.5
2015-May-20 04:55N 27°26' W 046°38'1 0.3 23.5
2015-May-20 01:55N 27°26' W 046°37'013.3 23.6
2015-May-20 01:54N 27°26' W 046°36'1 0.2 23.6
2015-May-19 21:09N 27°27' W 046°36'0 0.2 23.6
2015-May-19 20:53N 27°27' W 046°36'0 0.5 23.6
2015-May-19 19:55N 27°27' W 046°36'0 8.0 23.6
2015-May-19 19:52N 27°27' W 046°36'0 0.0 23.6
2015-May-19 19:15N 27°27' W 046°36'1 0.5 23.6
2015-May-19 18:09N 27°27' W 046°35'0 0.1 23.6
2015-May-19 13:55N 27°27' W 046°35'0 0.1 23.6
2015-May-19 12:07N 27°27' W 046°35'0 0.1 23.6
2015-May-19 11:18N 27°27' W 046°35'0 0.0 23.6
2015-May-19 09:56N 27°27' W 046°35'0 1.7 23.6
2015-May-19 09:46N 27°26' W 046°35'0 0.5 23.6
2015-May-19 09:36N 27°26' W 046°35'0 2.8 23.5
2015-May-19 09:28N 27°26' W 046°35'0 0.9 23.5
2015-May-19 09:19N 27°26' W 046°35'0 0.1 23.6
2015-May-19 07:41N 27°26' W 046°35'0 0.3 23.6
2015-May-19 06:53N 27°26' W 046°35'0 2.7 23.6
2015-May-19 06:44N 27°26' W 046°35'0 0.0 23.6
2015-May-19 05:09N 27°26' W 046°35'2 0.6 23.6
2015-May-19 02:14N 27°25' W 046°33'0 0.0 23.6
2015-May-19 01:31N 27°25' W 046°33'0 0.0 23.6
2015-May-19 00:40N 27°25' W 046°33'0 0.2 23.6
2015-May-18 23:51N 27°25' W 046°33'0 0.0
2015-May-18 23:50N 27°25' W 046°33'0 3.5 23.6
2015-May-18 23:45N 27°25' W 046°32'0 6.9 23.6
2015-May-18 23:41N 27°26' W 046°32'1 0.7
2015-May-18 22:52N 27°25' W 046°31'0 0.2 23.7
2015-May-18 21:33N 27°25' W 046°31'0 0.5 23.7
2015-May-18 21:07N 27°25' W 046°31'0 0.1 23.7
2015-May-18 20:31N 27°25' W 046°31'0 2.6 23.7
2015-May-18 20:21N 27°26' W 046°31'0 0.0 23.7
2015-May-18 19:55N 27°26' W 046°31'0 0.0 23.7
2015-May-18 19:25N 27°26' W 046°31'0 0.4 23.8
2015-May-18 18:23N 27°26' W 046°31'1 1.2 23.9
2015-May-18 17:45N 27°26' W 046°30'0 0.3 23.7
2015-May-18 16:41N 27°26' W 046°31'1 0.4 23.6
2015-May-18 14:59N 27°26' W 046°30'0 0.2 23.6
2015-May-18 14:15N 27°26' W 046°30'0 0.0 23.6
2015-May-18 12:34N 27°26' W 046°30'0 5.3 23.6
2015-May-18 12:31N 27°26' W 046°30'110.9 23.6
2015-May-18 12:28N 27°27' W 046°30'0 0.3 23.6
2015-May-18 11:40N 27°27' W 046°30'1 6.5 23.6
2015-May-18 11:35N 27°26' W 046°30'0 0.0 23.6
2015-May-18 10:20N 27°26' W 046°30'0 1.0 23.5
2015-May-18 09:51N 27°26' W 046°30'0 3.4 23.5
2015-May-18 09:43N 27°26' W 046°29'0 0.0 23.5
2015-May-18 08:08N 27°26' W 046°29'0 2.4 23.6
2015-May-18 08:05N 27°26' W 046°30'0 2.6 23.6
2015-May-18 08:01N 27°26' W 046°30'0 9.4 23.6
2015-May-18 07:58N 27°25' W 046°29'0 0.0 23.6
2015-May-18 07:04N 27°25' W 046°29'1 0.4 23.6
2015-May-18 05:20N 27°25' W 046°29'2 1.0 23.6
2015-May-18 03:39N 27°24' W 046°27'0 0.0 23.6
2015-May-18 01:44N 27°24' W 046°27'0 0.1
2015-May-18 00:54N 27°24' W 046°27'0 0.1 23.6
2015-May-18 00:08N 27°24' W 046°27'0 0.0 23.6
2015-May-17 23:19N 27°24' W 046°27'0 0.5 23.6
2015-May-17 23:10N 27°24' W 046°27'0 0.0
2015-May-17 21:55N 27°24' W 046°27'0 0.8 23.7
2015-May-17 21:18N 27°24' W 046°27'0 4.2 23.7
2015-May-17 21:15N 27°24' W 046°27'0 0.8 23.7
2015-May-17 21:01N 27°24' W 046°27'0 0.7 23.7
2015-May-17 20:20N 27°24' W 046°28'0 0.3 23.7
2015-May-17 19:40N 27°23' W 046°28'0 0.2 23.7
2015-May-17 18:34N 27°23' W 046°28'0 4.9 23.7
2015-May-17 18:30N 27°23' W 046°28'1 1.0 23.7
2015-May-17 17:53N 27°23' W 046°28'0 0.1 23.7
2015-May-17 16:55N 27°23' W 046°28'1 0.3 23.7
2015-May-17 15:10N 27°23' W 046°28'0 0.0
2015-May-17 12:52N 27°23' W 046°28'0 0.1 23.5
2015-May-17 12:00N 27°23' W 046°28'0 1.8 23.4
2015-May-17 11:56N 27°23' W 046°28'1 0.5 23.4
2015-May-17 10:20N 27°22' W 046°28'0 0.8 23.4
2015-May-17 09:54N 27°23' W 046°28'122.0 23.4
2015-May-17 09:51N 27°22' W 046°28'0 0.0 23.4
2015-May-17 08:44N 27°22' W 046°28'0 0.0 23.4
2015-May-17 08:38N 27°22' W 046°28'0 1.3 23.4
2015-May-17 08:16N 27°22' W 046°28'0 3.4 23.4
2015-May-17 08:09N 27°21' W 046°28'0 0.1 23.5
2015-May-17 07:13N 27°21' W 046°28'1 2.9 23.5
2015-May-17 07:01N 27°21' W 046°27'1 0.2 23.5
2015-May-16 22:47N 27°21' W 046°26'1 0.1 23.6
2015-May-16 19:04N 27°20' W 046°26'1 1.1 23.6
2015-May-16 18:08N 27°20' W 046°25'0 0.0 23.6
2015-May-16 17:07N 27°20' W 046°25'1 0.4 23.6
2015-May-16 14:05N 27°19' W 046°26'1 1.0 23.5
2015-May-16 13:20N 27°19' W 046°25'0 0.0 23.4
2015-May-16 13:14N 27°19' W 046°25'2 1.6 23.4
2015-May-16 12:16N 27°17' W 046°26'0 0.0 23.4
2015-May-16 10:08N 27°17' W 046°26'1 0.5 23.4
2015-May-16 08:20N 27°16' W 046°26'2 0.6 23.3
2015-May-16 04:02N 27°14' W 046°24'0 0.2 23.4
2015-May-16 01:39N 27°15' W 046°24'0 0.2 23.4
2015-May-15 23:55N 27°15' W 046°23'2 2.0 23.4
2015-May-15 23:09N 27°13' W 046°24'121.4 23.4
2015-May-15 23:06N 27°14' W 046°24'0 0.0 23.4
2015-May-15 21:09N 27°14' W 046°24'1 0.6 23.5
2015-May-15 20:04N 27°14' W 046°23'1 1.2 23.6
2015-May-15 18:55N 27°13' W 046°25'2 0.2 23.5
2015-May-15 11:53N 27°12' W 046°24'0 0.2 23.3
2015-May-15 11:01N 27°12' W 046°25'0 0.0 23.3
2015-May-15 09:53N 27°12' W 046°25'1 0.4 23.3
2015-May-15 08:11N 27°12' W 046°25'1 0.7 23.3
2015-May-15 06:55N 27°11' W 046°25'0 5.6 23.3
2015-May-15 06:52N 27°11' W 046°25'0 0.1 23.3
2015-May-15 05:53N 27°11' W 046°25'113.6 23.3
2015-May-15 05:49N 27°10' W 046°24'0 0.1 23.3
2015-May-15 04:13N 27°10' W 046°24'1 0.5 23.4
2015-May-15 01:55N 27°09' W 046°23'1 0.2 23.4
2015-May-14 22:40N 27°10' W 046°23'1 0.2 23.6
2015-May-14 20:14N 27°09' W 046°22'1 2.5 23.6
2015-May-14 19:55N 27°09' W 046°23'1 0.7 23.6
2015-May-14 18:09N 27°08' W 046°22'1 0.2 23.6
2015-May-14 13:54N 27°07' W 046°22'1 0.4 23.4
2015-May-14 12:21N 27°07' W 046°23'0 1.0 23.4
2015-May-14 12:16N 27°07' W 046°23'0 2.5 23.4
2015-May-14 12:13N 27°07' W 046°23'0 1.3 23.4
2015-May-14 12:08N 27°07' W 046°23'0 0.5 23.3
2015-May-14 11:21N 27°06' W 046°23'0 0.2 23.3
2015-May-14 10:29N 27°07' W 046°23'0 0.0 23.3
2015-May-14 10:20N 27°07' W 046°23'0 3.0 23.3
2015-May-14 10:16N 27°06' W 046°23'0 4.3
2015-May-14 10:09N 27°06' W 046°23'0 0.1 23.3
2015-May-14 08:49N 27°06' W 046°23'1 7.2 23.3
2015-May-14 08:44N 27°06' W 046°24'0 4.3 23.3
2015-May-14 08:38N 27°06' W 046°23'0 8.6 23.3
2015-May-14 08:35N 27°06' W 046°24'1 0.5 23.3
2015-May-14 07:06N 27°06' W 046°23'0 0.0
2015-May-14 06:56N 27°06' W 046°23'1 0.8 23.3
2015-May-14 06:03N 27°05' W 046°23'0 2.8 23.3
2015-May-14 05:59N 27°05' W 046°23'0 0.0 23.3
2015-May-14 04:27N 27°05' W 046°23'0 0.0 23.3
2015-May-14 04:24N 27°05' W 046°23'0 0.2 23.3
2015-May-14 02:18N 27°05' W 046°23'0 0.0 23.4
2015-May-14 01:34N 27°05' W 046°23'1 0.5 23.4
2015-May-13 23:55N 27°04' W 046°23'0 1.2 23.4
2015-May-13 23:52N 27°04' W 046°23'0 1.1 23.4
2015-May-13 23:49N 27°04' W 046°23'0 0.6 23.4
2015-May-13 23:02N 27°04' W 046°23'0 2.1 23.4
2015-May-13 22:56N 27°04' W 046°23'0 5.3 23.4
2015-May-13 22:51N 27°04' W 046°23'0 0.0
2015-May-13 21:54N 27°04' W 046°23'1 0.6 23.5
2015-May-13 20:25N 27°03' W 046°23'1 4.2 23.5
2015-May-13 20:15N 27°03' W 046°24'0 0.0 23.5
2015-May-13 19:41N 27°03' W 046°24'1 0.7 23.5
2015-May-13 18:44N 27°03' W 046°24'0 0.0 23.6
2015-May-13 17:40N 27°03' W 046°24'0 4.0 23.5
2015-May-13 17:34N 27°03' W 046°24'0 0.0 23.5
2015-May-13 15:59N 27°03' W 046°24'0 0.0 23.4
2015-May-13 15:56N 27°03' W 046°24'1 0.1 23.4
2015-May-13 10:41N 27°03' W 046°24'0 0.2 23.3
2015-May-13 09:06N 27°03' W 046°24'0 2.4 23.3
2015-May-13 08:58N 27°02' W 046°24'1 0.3 23.3
2015-May-13 06:13N 27°02' W 046°23'0 2.9 23.3
2015-May-13 06:08N 27°02' W 046°24'1 0.1 23.3
2015-May-13 01:02N 27°01' W 046°23'0 1.7 23.4
2015-May-13 00:55N 27°01' W 046°23'0 0.0 23.4
2015-May-13 00:17N 27°01' W 046°23'0 0.0 23.4
2015-May-13 00:13N 27°01' W 046°23'0 2.4 23.4
2015-May-13 00:09N 27°01' W 046°23'0 0.0 23.4
2015-May-12 23:23N 27°01' W 046°23'1 7.3 23.4
2015-May-12 23:17N 27°00' W 046°23'0 0.0 23.4
2015-May-12 23:14N 27°00' W 046°23'0 0.3 23.4
2015-May-12 21:55N 27°00' W 046°23'1 0.3 23.5
2015-May-12 18:55N 26°60' W 046°24'0 9.6 23.6
2015-May-12 18:54N 26°60' W 046°24'0 0.2 23.6
2015-May-12 17:51N 26°59' W 046°24'0 0.2 23.6
2015-May-12 16:10N 26°59' W 046°24'1 0.3 23.5
2015-May-12 13:47N 26°59' W 046°24'0 0.2 23.4
2015-May-12 12:53N 26°58' W 046°24'0 0.0 23.3
2015-May-12 12:03N 26°58' W 046°24'0 2.9 23.3
2015-May-12 11:58N 26°58' W 046°24'   23.3

Dump ship's entire track history